Time;durP1;ratioP1;P1;durP2;ratioP2;P2;SDS_P1;SDS_P2;PMS_P1;PMS_P2;Temp;Humidity;BMP_temperature;BMP_pressure;BME280_temperature;BME280_humidity;BME280_pressure;Samples;Min_cycle;Max_cycle;Signal;HPM_P1;HPM_P2
2024/01/25 00:01:06;;;;;;;10.65;2.38;;;;;;;6.90;100.00;102727.63;4975991;28;20030;-94
2024/01/25 00:03:31;;;;;;;14.23;2.93;;;;;;;6.80;100.00;102704.09;4975677;28;20027;-95
2024/01/25 00:05:56;;;;;;;14.03;2.97;;;;;;;6.82;100.00;102723.91;4976567;28;20026;-95
2024/01/25 00:08:22;;;;;;;12.37;3.07;;;;;;;6.84;100.00;102735.16;4976303;28;20030;-94
2024/01/25 00:11:04;;;;;;;10.00;2.40;;;;;;;6.72;100.00;102713.28;4975889;28;20041;-94
2024/01/25 00:13:29;;;;;;;10.40;2.55;;;;;;;6.82;100.00;102723.91;4975807;28;20038;-95
2024/01/25 00:15:55;;;;;;;5.80;2.00;;;;;;;6.76;100.00;102724.59;4976437;28;20027;-95
2024/01/25 00:18:20;;;;;;;10.17;2.67;;;;;;;6.73;100.00;102732.25;4975669;28;20034;-94
2024/01/25 00:20:45;;;;;;;13.40;2.85;;;;;;;6.59;100.00;102712.06;4976521;28;20030;-94
2024/01/25 00:23:21;;;;;;;11.50;2.73;;;;;;;6.61;100.00;102717.25;4976075;28;20023;-94
2024/01/25 00:25:46;;;;;;;10.98;2.47;;;;;;;6.64;100.00;102718.22;4976257;28;20122;-94
2024/01/25 00:28:12;;;;;;;12.17;2.87;;;;;;;6.53;100.00;102722.16;4975708;28;20066;-94
2024/01/25 00:30:38;;;;;;;8.97;2.50;;;;;;;6.49;100.00;102722.91;4976337;28;20027;-94
2024/01/25 00:33:04;;;;;;;8.18;2.05;;;;;;;6.54;100.00;102734.25;4975427;28;20797;-94
2024/01/25 00:35:35;;;;;;;8.23;2.30;;;;;;;6.42;100.00;102720.94;4974820;28;20026;-94
2024/01/25 00:38:01;;;;;;;10.60;2.92;;;;;;;6.45;100.00;102721.94;4976240;28;20023;-95
2024/01/25 00:40:26;;;;;;;8.90;2.33;;;;;;;6.37;100.00;102710.47;4975427;28;20054;-95
2024/01/25 00:42:55;;;;;;;12.33;2.47;;;;;;;6.33;100.00;102708.66;4976305;28;20027;-94
2024/01/25 00:45:21;;;;;;;11.93;2.50;;;;;;;6.31;100.00;102718.03;4975568;28;20023;-95
2024/01/25 00:47:54;;;;;;;11.27;2.70;;;;;;;6.28;100.00;102717.94;4975777;28;20146;-95
2024/01/25 00:50:25;;;;;;;11.98;2.40;;;;;;;6.28;100.00;102723.09;4975490;28;20027;-93
2024/01/25 00:52:51;;;;;;;13.57;2.97;;;;;;;6.23;100.00;102720.34;4975642;28;20395;-94
2024/01/25 00:55:45;;;;;;;7.17;2.33;;;;;;;6.33;100.00;102744.75;4975491;28;20039;-95
2024/01/25 00:58:21;;;;;;;11.45;2.35;;;;;;;6.25;100.00;102736.75;4972349;28;20027;-95
2024/01/25 01:00:46;;;;;;;7.37;2.30;;;;;;;6.27;100.00;102737.69;4975919;28;20037;-94
2024/01/25 01:03:14;;;;;;;11.23;2.65;;;;;;;6.25;100.00;102736.75;4975441;28;20030;-95
2024/01/25 01:05:39;;;;;;;7.57;2.10;;;;;;;6.23;100.00;102745.28;4976873;28;20138;-94
2024/01/25 01:08:05;;;;;;;3.97;1.73;;;;;;;6.18;100.00;102747.72;4977700;28;20173;-94
2024/01/25 01:10:30;;;;;;;7.43;1.80;;;;;;;6.18;100.00;102750.28;4975418;28;20043;-95
2024/01/25 01:12:56;;;;;;;3.00;1.63;;;;;;;6.13;100.00;102754.41;4976337;28;20037;-94
2024/01/25 01:15:21;;;;;;;5.83;1.63;;;;;;;6.08;100.00;102746.50;4974939;28;20030;-94
2024/01/25 01:17:46;;;;;;;7.30;1.90;;;;;;;6.04;100.00;102749.78;4975512;28;20026;-95
2024/01/25 01:20:11;;;;;;;10.53;2.37;;;;;;;6.03;100.00;102746.34;4975271;28;20046;-95
2024/01/25 01:22:37;;;;;;;8.80;2.13;;;;;;;6.04;100.00;102752.38;4976442;28;20023;-95
2024/01/25 01:25:02;;;;;;;5.40;1.90;;;;;;;5.99;100.00;102753.91;4975682;28;20045;-95
2024/01/25 01:27:27;;;;;;;8.57;1.93;;;;;;;5.95;100.00;102750.34;4976577;28;20094;-95
2024/01/25 01:29:53;;;;;;;5.23;1.80;;;;;;;5.94;100.00;102756.31;4977075;28;20034;-95
2024/01/25 01:32:18;;;;;;;8.27;2.35;;;;;;;5.92;100.00;102764.78;4976624;28;20042;-95
2024/01/25 01:34:44;;;;;;;11.60;2.60;;;;;;;5.91;100.00;102763.06;4976305;28;20027;-94
2024/01/25 01:37:09;;;;;;;10.35;2.40;;;;;;;5.85;100.00;102759.44;4977520;28;20027;-95
2024/01/25 01:39:34;;;;;;;8.23;2.30;;;;;;;5.87;100.00;102757.81;4979245;28;20030;-95
2024/01/25 01:42:00;;;;;;;11.13;2.63;;;;;;;5.80;100.00;102760.97;4980815;28;20030;-95
2024/01/25 01:44:25;;;;;;;6.53;2.25;;;;;;;5.78;100.00;102767.78;4982244;28;20027;-95
2024/01/25 01:46:50;;;;;;;5.30;1.90;;;;;;;5.77;100.00;102760.88;4985110;28;20019;-95
2024/01/25 01:49:16;;;;;;;6.60;2.00;;;;;;;5.80;100.00;102778.13;4988883;28;20027;-93
2024/01/25 01:51:43;;;;;;;5.60;1.90;;;;;;;5.69;100.00;102778.63;4996802;28;20014;-94
2024/01/25 01:54:09;;;;;;;;;;;;;;;5.77;100.00;102796.06;4994622;28;20048;-95
2024/01/25 01:59:58;;;;;;;4.53;1.80;;;;;;;5.68;100.00;102797.50;4980610;28;20081;-95
2024/01/25 02:02:39;;;;;;;4.45;1.35;;;;;;;5.53;100.00;102777.19;4957664;28;20062;-95
2024/01/25 02:05:05;;;;;;;5.60;1.65;;;;;;;5.55;100.00;102792.69;4955622;29;20030;-95
2024/01/25 02:07:31;;;;;;;4.83;1.80;;;;;;;5.58;100.00;102810.84;4955646;29;20102;-95
2024/01/25 02:09:56;;;;;;;2.28;1.30;;;;;;;5.47;100.00;102800.13;4955668;29;20458;-95
2024/01/25 02:12:29;;;;;;;3.97;1.70;;;;;;;5.43;100.00;102794.81;4955211;29;20130;-96
2024/01/25 02:14:55;;;;;;;3.95;1.48;;;;;;;5.45;100.00;102813.78;4954594;29;20364;-95
2024/01/25 02:17:20;;;;;;;2.63;1.10;;;;;;;5.41;100.00;102811.09;4954862;29;20113;-95
2024/01/25 02:19:46;;;;;;;4.22;1.50;;;;;;;5.49;100.00;102819.09;4955628;29;20062;-95
2024/01/25 02:22:32;;;;;;;4.80;1.60;;;;;;;5.45;100.00;102822.41;4955410;29;20043;-94
2024/01/25 02:24:57;;;;;;;5.35;1.60;;;;;;;5.36;100.00;102817.78;4955062;29;20050;-95
2024/01/25 02:27:23;;;;;;;4.43;1.38;;;;;;;5.31;100.00;102808.97;4958291;28;20472;-95
2024/01/25 02:29:48;;;;;;;4.20;1.43;;;;;;;5.36;100.00;102822.94;4959439;29;20038;-95
2024/01/25 02:32:13;;;;;;;5.00;1.20;;;;;;;5.35;100.00;102831.47;4936810;29;20080;-95
2024/01/25 02:34:39;;;;;;;3.20;1.35;;;;;;;5.30;100.00;102825.25;4940165;29;20048;-96
2024/01/25 02:37:05;;;;;;;3.42;1.42;;;;;;;5.27;100.00;102827.72;4939897;29;20167;-95
2024/01/25 02:39:30;;;;;;;5.15;1.70;;;;;;;5.27;100.00;102830.31;4940119;29;20473;-95
2024/01/25 02:41:56;;;;;;;9.63;1.90;;;;;;;5.17;100.00;102823.03;4939972;29;20089;-95
2024/01/25 02:44:21;;;;;;;8.97;2.10;;;;;;;5.19;100.00;102827.41;4938740;29;20110;-95
2024/01/25 02:46:46;;;;;;;9.87;2.20;;;;;;;5.12;100.00;102827.13;4939489;29;20034;-95
2024/01/25 02:49:27;;;;;;;6.90;1.90;;;;;;;5.05;100.00;102808.88;4939461;29;20048;-96
2024/01/25 02:51:52;;;;;;;9.70;2.22;;;;;;;5.16;100.00;102829.88;4939222;29;20034;-95
2024/01/25 02:54:17;;;;;;;5.20;1.93;;;;;;;5.08;100.00;102808.09;4941458;29;20027;-95
2024/01/25 02:56:44;;;;;;;6.47;2.20;;;;;;;5.04;100.00;102803.66;4958353;29;20027;-96
2024/01/25 03:01:40;;;;;;;5.22;1.60;;;;;;;5.03;100.00;102815.66;4975478;23;20056;-96
2024/01/25 03:04:05;;;;;;;7.60;1.98;;;;;;;4.99;100.00;102818.91;4939496;29;20031;-96
2024/01/25 03:06:31;;;;;;;6.80;1.80;;;;;;;4.98;100.00;102818.84;4939158;29;20027;-96
2024/01/25 03:08:56;;;;;;;3.60;1.60;;;;;;;4.93;100.00;102819.53;4939522;29;20032;-95
2024/01/25 03:11:22;;;;;;;3.67;1.55;;;;;;;4.94;100.00;102831.59;4939336;29;20027;-96
2024/01/25 03:13:47;;;;;;;3.15;1.30;;;;;;;4.94;100.00;102825.59;4939317;29;20039;-96
2024/01/25 03:16:12;;;;;;;3.30;1.50;;;;;;;4.88;100.00;102815.03;4944522;29;20027;-95
2024/01/25 03:18:37;;;;;;;4.13;1.30;;;;;;;4.88;100.00;102815.03;4939255;29;20437;-96
2024/01/25 03:21:03;;;;;;;3.93;1.40;;;;;;;4.87;100.00;102826.13;4942217;29;20023;-96
2024/01/25 03:23:28;;;;;;;2.67;1.40;;;;;;;4.84;100.00;102816.59;4958506;29;20054;-96
2024/01/25 03:25:53;;;;;;;2.03;1.07;;;;;;;4.80;100.00;102809.56;4958547;29;20039;-96
2024/01/25 03:28:19;;;;;;;1.67;1.08;;;;;;;4.78;100.00;102818.94;4958267;29;20082;-96
2024/01/25 03:30:44;;;;;;;3.38;1.10;;;;;;;4.77;100.00;102824.91;4958387;29;20061;-96
2024/01/25 03:33:09;;;;;;;4.03;1.40;;;;;;;4.73;100.00;102821.31;4957908;29;20023;-96
2024/01/25 03:35:35;;;;;;;6.53;1.67;;;;;;;4.73;100.00;102826.44;4958126;29;20034;-95
2024/01/25 03:38:00;;;;;;;3.93;1.10;;;;;;;4.71;100.00;102830.69;4957424;28;20479;-96
2024/01/25 03:40:25;;;;;;;3.87;1.17;;;;;;;4.68;100.00;102832.22;4949327;23;20056;-96
2024/01/25 03:42:51;;;;;;;4.07;1.20;;;;;;;4.66;100.00;102831.31;4938789;29;20063;-96
2024/01/25 03:45:16;;;;;;;3.55;1.05;;;;;;;4.61;100.00;102833.69;4938236;29;20028;-96
2024/01/25 03:47:41;;;;;;;1.92;0.82;;;;;;;4.59;100.00;102838.75;4939781;29;20027;-96
2024/01/25 03:50:07;;;;;;;3.50;1.10;;;;;;;4.57;100.00;102844.66;4939090;29;20597;-96
2024/01/25 03:52:32;;;;;;;4.13;1.30;;;;;;;4.55;100.00;102841.13;4938127;29;20027;-96
2024/01/25 03:54:57;;;;;;;4.30;1.33;;;;;;;4.52;100.00;102836.75;4938205;29;20032;-95
2024/01/25 03:57:23;;;;;;;4.07;1.30;;;;;;;4.46;100.00;102821.94;4939103;29;20031;-96
2024/01/25 03:59:48;;;;;;;4.05;1.50;;;;;;;4.44;100.00;102823.56;4939090;29;20687;-96
2024/01/25 04:02:13;;;;;;;3.00;1.07;;;;;;;4.42;100.00;102825.19;4938266;29;20031;-96
2024/01/25 04:04:39;;;;;;;5.60;1.55;;;;;;;4.38;100.00;102828.47;4938110;29;20031;-96
2024/01/25 04:07:04;;;;;;;3.88;1.40;;;;;;;4.35;100.00;102823.19;4938627;29;20508;-95
2024/01/25 04:09:29;;;;;;;7.60;1.83;;;;;;;4.35;100.00;102833.47;4939209;29;20030;-95
2024/01/25 04:11:55;;;;;;;4.15;1.35;;;;;;;4.29;100.00;102838.31;4939267;29;20432;-96
2024/01/25 04:14:21;;;;;;;1.98;1.15;;;;;;;4.28;100.00;102847.75;4938674;29;20038;-96
2024/01/25 04:16:46;;;;;;;2.90;1.15;;;;;;;4.25;100.00;102847.59;4938261;29;20028;-96
2024/01/25 04:19:12;;;;;;;3.20;1.23;;;;;;;4.20;100.00;102838.81;4938617;29;20027;-96
2024/01/25 04:21:38;;;;;;;3.63;1.25;;;;;;;4.14;100.00;102835.97;4938840;29;20103;-96
2024/01/25 04:24:04;;;;;;;4.78;1.55;;;;;;;4.11;100.00;102844.44;4938715;29;20384;-96
2024/01/25 04:26:29;;;;;;;4.15;1.50;;;;;;;4.07;100.00;102847.69;4938281;29;20031;-96
2024/01/25 04:28:55;;;;;;;3.05;1.10;;;;;;;4.07;100.00;102847.69;4938251;29;20032;-96
2024/01/25 04:31:49;;;;;;;4.63;1.33;;;;;;;4.05;100.00;102844.19;4938705;29;20019;-96
2024/01/25 04:34:15;;;;;;;5.53;1.13;;;;;;;4.02;100.00;102838.91;4937961;29;20445;-96
2024/01/25 04:36:53;;;;;;;2.75;1.40;;;;;;;3.84;100.00;102816.72;4937807;29;20539;-95
2024/01/25 04:39:18;;;;;;;3.10;1.20;;;;;;;3.89;100.00;102822.03;4938173;29;20059;-96
2024/01/25 04:41:44;;;;;;;3.97;1.40;;;;;;;3.89;100.00;102832.31;4938642;29;20051;-96
2024/01/25 04:44:09;;;;;;;4.90;1.67;;;;;;;3.90;100.00;102828.94;4938116;29;20020;-96
2024/01/25 04:46:46;;;;;;;;;;;;;;;;;;;;;
2024/01/25 04:49:13;;;;;;;4.90;1.85;;;;;;;3.85;100.00;102823.59;4937051;29;20040;-96
2024/01/25 04:51:38;;;;;;;5.47;1.60;;;;;;;3.84;100.00;102829.56;4938639;29;20393;-96
2024/01/25 04:54:04;;;;;;;2.67;1.30;;;;;;;3.73;100.00;102804.22;4937517;29;20024;-96
2024/01/25 04:56:49;;;;;;;2.58;1.00;;;;;;;3.84;100.00;102834.69;4938362;29;20092;-96
2024/01/25 04:59:15;;;;;;;1.93;1.13;;;;;;;3.67;100.00;102820.22;4959374;28;20023;-96
2024/01/25 05:01:49;;;;;;;2.15;1.20;;;;;;;3.65;100.00;102816.72;4939985;29;20032;-96
2024/01/25 05:04:16;;;;;;;3.58;1.45;;;;;;;3.65;100.00;102819.28;4938850;29;20028;-96
2024/01/25 05:06:41;;;;;;;4.97;1.30;;;;;;;3.77;100.00;102852.34;4938536;29;20032;-96
2024/01/25 05:09:08;;;;;;;2.53;1.05;;;;;;;3.67;100.00;102838.22;4938937;29;20031;-95
2024/01/25 05:11:46;;;;;;;;;;;;;;;3.72;100.00;102834.13;4938881;29;20372;-95
2024/01/25 05:14:14;;;;;;;3.72;1.50;;;;;;;3.71;100.00;102832.41;4938636;29;19915;-96
2024/01/25 05:16:39;;;;;;;3.17;1.17;;;;;;;3.62;100.00;102812.31;4938908;29;20035;-96
2024/01/25 05:19:05;;;;;;;3.67;1.60;;;;;;;3.55;100.00;102811.16;4938369;29;20175;-96
2024/01/25 05:21:31;;;;;;;1.63;1.10;;;;;;;3.61;100.00;102820.81;4939055;29;20028;-96
2024/01/25 05:24:03;;;;;;;3.20;1.10;;;;;;;3.63;100.00;102831.16;4939091;29;20036;-96
2024/01/25 05:26:28;;;;;;;3.55;1.27;;;;;;;3.51;100.00;102808.38;4939051;29;20027;-95
2024/01/25 05:28:53;;;;;;;2.93;1.23;;;;;;;3.51;100.00;102816.09;4938844;29;20079;-96
2024/01/25 05:31:19;;;;;;;4.40;1.40;;;;;;;3.56;100.00;102822.28;4945555;29;20023;-96
2024/01/25 05:33:44;;;;;;;3.80;1.30;;;;;;;3.56;100.00;102819.72;4939448;29;20024;-96
2024/01/25 05:36:26;;;;;;;3.92;1.33;;;;;;;3.42;100.00;102808.84;4938903;29;20119;-96
2024/01/25 05:38:51;;;;;;;3.53;1.25;;;;;;;3.40;100.00;102802.75;4939139;29;20031;-96
2024/01/25 05:41:17;;;;;;;3.33;1.70;;;;;;;3.44;100.00;102812.34;4940105;29;20035;-96
2024/01/25 05:43:42;;;;;;;4.60;1.58;;;;;;;3.37;100.00;102810.31;4943027;28;20028;-96
2024/01/25 05:46:55;;;;;;;2.75;1.60;;;;;;;3.49;100.00;102840.81;4939603;29;20103;-96
2024/01/25 05:49:20;;;;;;;5.57;1.55;;;;;;;3.38;100.00;102822.31;4940773;29;20117;-96
2024/01/25 05:51:46;;;;;;;4.53;1.20;;;;;;;3.34;100.00;102825.56;4939855;29;20152;-95
2024/01/25 05:54:11;;;;;;;4.47;1.40;;;;;;;3.37;100.00;102849.69;4940211;29;20028;-95
2024/01/25 05:56:48;;;;;;;3.03;1.42;;;;;;;3.26;100.00;102835.47;4939805;29;20064;-95
2024/01/25 05:59:13;;;;;;;2.72;1.40;;;;;;;3.29;100.00;102845.91;4941952;29;20102;-86
2024/01/25 06:01:56;;;;;;;2.90;1.30;;;;;;;3.42;100.00;102867.88;4946134;29;20574;-96
2024/01/25 06:04:22;;;;;;;2.92;1.30;;;;;;;3.33;100.00;102845.22;4953363;29;20027;-96
2024/01/25 06:06:48;;;;;;;2.78;1.00;;;;;;;3.25;100.00;102831.16;4956984;29;20027;-96
2024/01/25 06:09:24;;;;;;;2.30;1.38;;;;;;;3.37;100.00;102846.25;4978875;28;20038;-95
2024/01/25 06:11:50;;;;;;;1.63;1.00;;;;;;;3.23;100.00;102825.97;4984769;28;20034;-95
2024/01/25 06:14:15;;;;;;;3.28;1.10;;;;;;;3.31;100.00;102839.16;4982293;28;20086;-95
2024/01/25 06:16:42;;;;;;;2.88;1.35;;;;;;;3.24;100.00;102824.25;4981734;28;20031;-95
2024/01/25 06:19:23;;;;;;;;;;;;;;;3.34;100.00;102851.25;4971430;29;20027;-96
2024/01/25 06:21:49;;;;;;;3.10;1.20;;;;;;;3.14;100.00;102828.09;4963099;29;19953;-95
2024/01/25 06:24:15;;;;;;;2.92;1.20;;;;;;;3.08;100.00;102826.13;4962458;29;20126;-96
2024/01/25 06:27:09;;;;;;;3.03;1.10;;;;;;;3.20;100.00;102858.28;4962603;28;20168;-96
2024/01/25 06:29:50;;;;;;;3.47;1.25;;;;;;;3.03;100.00;102829.28;4962932;28;20027;-95
2024/01/25 06:32:15;;;;;;;4.07;1.58;;;;;;;2.96;100.00;102833.22;4962231;29;20031;-95
2024/01/25 06:34:41;;;;;;;2.80;1.40;;;;;;;2.96;100.00;102847.72;4962282;29;20034;-95
2024/01/25 06:37:06;;;;;;;4.97;1.95;;;;;;;2.94;100.00;102850.22;4962052;29;20461;-95
2024/01/25 06:39:32;;;;;;;3.95;1.60;;;;;;;3.03;100.00;102875.44;4965753;23;20051;-95
2024/01/25 06:41:57;;;;;;;4.67;1.70;;;;;;;2.98;100.00;102875.22;4943269;29;20028;-95
2024/01/25 06:44:22;;;;;;;2.88;1.50;;;;;;;2.99;100.00;102868.41;4943520;29;20066;-96
2024/01/25 06:46:48;;;;;;;5.50;1.60;;;;;;;2.94;100.00;102868.19;4943064;29;20482;-95
2024/01/25 06:49:13;;;;;;;4.90;1.73;;;;;;;2.95;100.00;102877.63;4953948;28;20050;-96
2024/01/25 06:51:38;;;;;;;4.05;1.98;;;;;;;2.93;100.00;102872.41;4942636;29;20032;-96
2024/01/25 06:54:04;;;;;;;2.92;1.65;;;;;;;2.89;100.00;102872.19;4943701;29;20038;-96
2024/01/25 06:56:29;;;;;;;3.00;1.52;;;;;;;2.85;100.00;102872.84;4942633;29;20107;-95
2024/01/25 06:58:54;;;;;;;3.33;1.67;;;;;;;2.82;100.00;102870.13;4942916;29;20106;-92
2024/01/25 07:01:23;;;;;;;2.60;1.65;;;;;;;2.81;100.00;102868.38;4942616;29;20036;-93
2024/01/25 07:03:52;;;;;;;2.40;1.65;;;;;;;2.82;100.00;102871.00;4941810;29;20070;-86
2024/01/25 07:06:18;;;;;;;2.83;1.52;;;;;;;2.79;100.00;102868.31;4942451;29;20206;-88
2024/01/25 07:08:45;;;;;;;4.50;1.85;;;;;;;2.76;100.00;102874.13;4950328;29;20123;-95
2024/01/25 07:11:10;;;;;;;5.63;2.00;;;;;;;2.74;100.00;102874.88;4949926;29;20023;-94
2024/01/25 07:13:36;;;;;;;6.05;2.05;;;;;;;2.71;100.00;102867.03;4947354;29;20428;-94
2024/01/25 07:16:01;;;;;;;4.68;2.25;;;;;;;2.71;100.00;102860.22;4941833;29;20028;-94
2024/01/25 07:18:29;;;;;;;4.18;2.05;;;;;;;2.71;100.00;102862.78;4943074;29;20031;-95
2024/01/25 07:20:54;;;;;;;4.53;2.05;;;;;;;2.70;100.00;102857.59;4946562;29;20027;-94
2024/01/25 07:23:21;;;;;;;7.35;2.13;;;;;;;2.66;100.00;102853.97;4940698;29;20038;-94
2024/01/25 07:26:02;;;;;;;2.83;1.80;;;;;;;2.62;100.00;102864.91;4943004;29;20055;-95
2024/01/25 07:28:28;;;;;;;3.60;1.60;;;;;;;2.54;100.00;102861.03;4958562;29;20038;-94
2024/01/25 07:31:00;;;;;;;3.67;1.60;;;;;;;2.46;100.00;102859.00;4963407;29;20031;-93
2024/01/25 07:33:26;;;;;;;4.25;1.88;;;;;;;2.45;100.00;102877.72;4965234;29;20023;-91
2024/01/25 07:35:51;;;;;;;4.82;2.20;;;;;;;2.49;100.00;102886.44;4957163;29;20094;-86
2024/01/25 07:38:16;;;;;;;6.57;2.10;;;;;;;2.50;100.00;102895.91;4937037;29;20027;-86
2024/01/25 07:40:42;;;;;;;4.23;1.90;;;;;;;2.58;100.00;102896.31;4936814;29;20078;-86
2024/01/25 07:43:07;;;;;;;5.10;2.00;;;;;;;2.60;100.00;102882.75;4936749;29;20427;-86
2024/01/25 07:45:33;;;;;;;4.82;1.90;;;;;;;2.62;100.00;102883.72;4936228;29;20019;-87
2024/01/25 07:47:58;;;;;;;2.58;1.70;;;;;;;2.66;100.00;102883.88;4937447;29;20024;-86
2024/01/25 07:50:23;;;;;;;3.10;1.50;;;;;;;2.65;100.00;102882.97;4936863;29;20138;-86
2024/01/25 07:52:49;;;;;;;4.18;1.75;;;;;;;2.71;100.00;102874.72;4936919;29;20388;-86
2024/01/25 07:55:15;;;;;;;4.73;1.70;;;;;;;2.67;100.00;102862.56;4953996;29;20439;-87
2024/01/25 07:57:50;;;;;;;3.10;1.60;;;;;;;2.77;100.00;102873.34;4954911;29;20031;-86
2024/01/25 08:00:18;;;;;;;2.90;1.40;;;;;;;2.66;100.00;102859.09;4939160;29;20075;-86
2024/01/25 08:02:44;;;;;;;4.07;1.40;;;;;;;2.70;100.00;102858.47;4956240;29;20031;-93
2024/01/25 08:05:11;;;;;;;2.05;1.20;;;;;;;2.78;100.00;102874.22;4957365;28;20529;-93
2024/01/25 08:08:01;;;;;;;4.07;1.90;;;;;;;2.93;100.00;102894.63;4958288;29;20085;-94
2024/01/25 08:10:27;;;;;;;2.63;1.65;;;;;;;2.94;100.00;102893.81;4960789;29;20031;-94
2024/01/25 08:13:07;;;;;;;1.48;1.35;;;;;;;2.87;100.00;102882.38;4961856;29;20030;-95
2024/01/25 08:15:33;;;;;;;5.13;1.55;;;;;;;2.87;100.00;102871.25;4962485;29;20372;-94
2024/01/25 08:17:58;;;;;;;3.63;1.80;;;;;;;2.94;100.00;102876.72;4961668;29;20020;-95
2024/01/25 08:20:25;;;;;;;2.17;1.50;;;;;;;2.95;100.00;102872.50;4960018;29;20357;-94
2024/01/25 08:23:03;;;;;;;2.97;1.70;;;;;;;2.93;100.00;102877.53;4962551;29;20145;-94
2024/01/25 08:25:29;;;;;;;2.53;1.52;;;;;;;3.08;100.00;102895.38;4961009;28;20592;-94
2024/01/25 08:27:54;;;;;;;2.50;1.50;;;;;;;3.05;100.00;102887.53;4960384;29;20035;-93
2024/01/25 08:30:32;;;;;;;2.10;1.30;;;;;;;3.10;100.00;102892.88;4959097;28;20038;-94
2024/01/25 08:32:58;;;;;;;3.85;1.77;;;;;;;3.10;100.00;102862.09;4959655;29;20186;-94
2024/01/25 08:35:24;;;;;;;7.22;2.20;;;;;;;3.12;100.00;102850.22;4958776;29;20041;-94
2024/01/25 08:38:02;;;;;;;4.87;2.03;;;;;;;3.18;100.00;102844.50;4958545;29;20103;-94
2024/01/25 08:40:28;;;;;;;5.03;2.15;;;;;;;3.25;100.00;102859.38;4958222;28;20057;-94
2024/01/25 08:42:53;;;;;;;5.20;1.77;;;;;;;3.23;100.00;102856.75;4958923;29;20027;-94
2024/01/25 08:45:33;;;;;;;5.07;1.88;;;;;;;3.36;100.00;102878.72;4957612;29;20035;-93
2024/01/25 08:47:59;;;;;;;5.30;1.90;;;;;;;3.38;100.00;102877.13;4956307;29;20500;-83
2024/01/25 08:50:43;;;;;;;3.17;1.67;;;;;;;3.35;100.00;102873.53;4956087;29;20039;-95
2024/01/25 08:53:17;;;;;;;3.38;1.85;;;;;;;3.40;100.00;102883.22;4957283;29;20047;-94
2024/01/25 08:55:43;;;;;;;2.95;1.60;;;;;;;3.55;100.00;102910.41;4956562;29;20090;-95
2024/01/25 08:58:14;;;;;;;4.33;1.50;;;;;;;3.46;100.00;102882.63;4943927;29;20390;-96
2024/01/25 09:00:39;;;;;;;3.97;1.58;;;;;;;3.62;100.00;102904.75;4953573;29;20028;-95
2024/01/25 09:03:06;;;;;;;2.70;1.40;;;;;;;3.59;100.00;102885.78;4940866;29;20037;-95
2024/01/25 09:05:48;;;;;;;3.55;1.50;;;;;;;3.54;100.00;102883.00;4938000;29;20038;-95
2024/01/25 09:08:26;;;;;;;6.05;2.20;;;;;;;3.61;100.00;102892.72;4938155;29;20069;-95
2024/01/25 09:10:51;;;;;;;4.93;2.17;;;;;;;3.70;100.00;102897.41;4937609;29;20481;-95
2024/01/25 09:13:20;;;;;;;6.47;2.20;;;;;;;3.77;100.00;102898.59;4938095;29;20039;-95
2024/01/25 09:15:46;;;;;;;4.95;2.20;;;;;;;3.75;100.00;102895.06;4937046;29;20036;-95
2024/01/25 09:18:13;;;;;;;3.25;2.10;;;;;;;3.91;100.00;102909.47;4937480;29;20043;-96
2024/01/25 09:20:39;;;;;;;;;;;;;;;3.94;100.00;102899.34;4937701;29;20466;-95
2024/01/25 09:23:04;;;;;;;3.07;1.83;;;;;;;3.92;100.00;102896.69;4936461;29;19914;-96
2024/01/25 09:25:45;;;;;;;3.13;1.90;;;;;;;3.93;100.00;102884.75;4937097;29;20032;-95
2024/01/25 09:28:11;;;;;;;2.88;1.67;;;;;;;4.06;100.00;102896.44;4936828;29;20384;-95
2024/01/25 09:30:38;;;;;;;2.58;1.63;;;;;;;4.20;100.00;102907.31;4952271;29;20062;-95
2024/01/25 09:33:10;;;;;;;;;;;;;;;4.26;100.00;102915.34;4956190;29;20062;-95
2024/01/25 09:35:35;;;;;;;4.18;2.00;;;;;;;4.27;100.00;102892.25;4955539;28;20421;-95
2024/01/25 09:38:00;;;;;;;4.33;2.20;;;;;;;4.37;100.00;102901.25;4956194;29;20034;-95
2024/01/25 09:40:26;;;;;;;6.85;2.58;;;;;;;4.43;100.00;102903.22;4955649;29;20407;-95
2024/01/25 09:42:52;;;;;;;8.10;3.00;;;;;;;4.53;100.00;102900.22;4956276;29;20067;-95
2024/01/25 09:45:34;;;;;;;10.90;4.00;;;;;;;4.48;100.00;102882.03;4951733;29;20061;-94
2024/01/25 09:48:04;;;;;;;11.15;3.92;;;;;;;4.56;100.00;102886.59;4956018;29;20135;-94
2024/01/25 09:50:33;;;;;;;8.82;3.70;;;;;;;4.64;100.00;102898.09;4956262;29;20106;-92
2024/01/25 09:53:02;;;;;;;11.77;3.55;;;;;;;4.71;100.00;102894.97;4955981;29;20098;-91
2024/01/25 09:55:27;;;;;;;9.45;4.10;;;;;;;4.85;100.00;102899.81;4954953;29;20039;-87
2024/01/25 09:58:07;;;;;;;11.87;3.93;;;;;;;4.90;100.00;102906.03;4947973;29;20031;-91
2024/01/25 10:00:42;;;;;;;12.80;3.88;;;;;;;4.92;100.00;102888.97;4937363;29;20095;-91
2024/01/25 10:03:09;;;;;;;12.32;4.13;;;;;;;4.95;100.00;102883.97;4938967;29;20043;-95
2024/01/25 10:05:46;;;;;;;7.45;3.50;;;;;;;5.01;100.00;102883.31;4952318;29;20020;-95
2024/01/25 10:08:23;;;;;;;;;;;;;;;5.14;100.00;102892.41;4956879;28;20024;-94
2024/01/25 10:10:51;;;;;;;9.68;3.80;;;;;;;5.17;100.00;102887.41;4938498;29;20276;-96
2024/01/25 10:13:16;;;;;;;11.75;4.18;;;;;;;5.12;100.00;102870.88;4938379;29;20314;-93
2024/01/25 10:15:44;;;;;;;14.43;5.00;;;;;;;5.20;100.00;102887.50;4937984;29;20134;-90
2024/01/25 10:18:12;;;;;;;15.48;5.32;;;;;;;5.15;100.00;102860.72;4939111;29;20038;-91
2024/01/25 10:20:44;;;;;;;15.05;5.45;;;;;;;5.29;100.00;102868.97;4938768;29;20023;-89
2024/01/25 10:23:10;;;;;;;14.35;5.00;;;;;;;5.30;100.00;102879.31;4940743;29;20040;-94
2024/01/25 10:25:37;;;;;;;13.03;4.67;;;;;;;5.33;100.00;102894.91;4950211;29;20023;-90
2024/01/25 10:28:04;;;;;;;10.43;4.38;;;;;;;5.31;100.00;102887.94;4964135;28;20476;-90
2024/01/25 10:30:33;;;;;;;10.98;4.25;;;;;;;5.39;100.00;102884.84;4968707;29;20083;-89
2024/01/25 10:32:58;;;;;;;8.63;3.80;;;;;;;5.41;100.00;102869.44;4969630;28;20372;-91
2024/01/25 10:35:25;;;;;;;9.33;3.57;;;;;;;5.46;100.00;102861.91;4958415;29;20023;-90
2024/01/25 10:37:51;;;;;;;;;;;;;;;5.52;100.00;102862.13;4958331;29;20036;-91
2024/01/25 10:40:18;;;;;;;11.50;3.90;;;;;;;5.51;100.00;102856.09;4954061;29;20009;-88
2024/01/25 10:42:45;;;;;;;12.13;4.35;;;;;;;5.57;100.00;102856.31;4953777;29;20027;-90
2024/01/25 10:45:10;;;;;;;9.55;4.10;;;;;;;5.63;100.00;102858.25;4954845;29;20023;-89
2024/01/25 10:47:37;;;;;;;10.00;3.70;;;;;;;5.67;100.00;102851.53;4955143;28;20097;-90
2024/01/25 10:50:03;;;;;;;9.60;3.53;;;;;;;5.76;100.00;102856.13;4958826;29;20031;-90
2024/01/25 10:52:30;;;;;;;6.38;3.22;;;;;;;5.81;100.00;102858.06;4957268;29;20159;-89
2024/01/25 10:54:56;;;;;;;10.05;3.63;;;;;;;5.83;100.00;102842.69;4958028;29;20066;-89
2024/01/25 10:57:21;;;;;;;8.37;3.37;;;;;;;5.90;100.00;102841.22;4957727;29;20055;-88
2024/01/25 10:59:47;;;;;;;7.43;3.40;;;;;;;5.93;100.00;102834.47;4957755;29;20051;-89
2024/01/25 11:02:12;;;;;;;6.50;2.97;;;;;;;6.01;100.00;102837.34;4955817;29;20405;-88
2024/01/25 11:04:37;;;;;;;6.57;3.10;;;;;;;6.05;100.00;102830.59;4957284;29;20031;-89
2024/01/25 11:07:08;;;;;;;4.37;2.60;;;;;;;6.12;100.00;102840.28;4955293;29;20373;-86
2024/01/25 11:09:36;;;;;;;6.35;2.67;;;;;;;6.18;100.00;102833.66;4944117;29;20035;-86
2024/01/25 11:12:11;;;;;;;4.20;2.42;;;;;;;6.21;100.00;102829.44;4937557;29;20063;-85
2024/01/25 11:14:37;;;;;;;8.35;3.05;;;;;;;6.25;100.00;102815.84;4936924;29;20453;-84
2024/01/25 11:17:23;;;;;;;12.40;4.20;;;;;;;6.25;100.00;102800.38;4936048;29;20054;-84
2024/01/25 11:19:50;;;;;;;13.88;4.18;;;;;;;6.29;100.00;102810.84;4936768;29;20098;-84
2024/01/25 11:22:15;;;;;;;9.93;3.67;;;;;;;6.27;100.00;102804.75;4936450;29;20464;-83
2024/01/25 11:24:42;;;;;;;8.67;3.63;;;;;;;6.36;100.00;102806.72;4935995;29;20024;-84
2024/01/25 11:27:09;;;;;;;9.75;3.60;;;;;;;6.39;100.00;102806.84;4936193;29;20493;-84
2024/01/25 11:29:35;;;;;;;9.35;3.80;;;;;;;6.42;100.00;102798.31;4936968;29;20087;-83
2024/01/25 11:32:00;;;;;;;12.80;4.27;;;;;;;6.44;100.00;102776.94;4935627;29;20027;-84
2024/01/25 11:34:26;;;;;;;11.65;3.88;;;;;;;6.45;100.00;102767.47;4935742;29;20122;-83
2024/01/25 11:36:51;;;;;;;13.13;3.97;;;;;;;6.51;100.00;102792.59;4935468;29;20087;-84